Hauptseite
METAR-TAF:

METAR-TAF

Flughäfen :

Flughafen Alexandros Papadiamantis

Skiathos, Griechenland

Breite: 39-11N, Länge: 023-30E, Höhe: 15 m

Beobachtung

Neuester Wetterbericht von vor 15 Stunden und 52 Minuten, um 13:50 UTC
Wind 7 kt aus Nord
Temperatur 19°C
Luftfeuchtigkeit 73%
Luftdruck 1013 hPa
Sichtweite 10 km oder mehr
Leicht bewölkt in der Höhe von 1000 ft
Aufgelockert bewölkt in der Höhe von 2500 ft

METAR: LGSK 211350Z 01007KT 9999 FEW010 SCT025 19/14 Q1013

Zeit: 07:42 (05:42 UTC)

Prognose

Neuester Wetterbericht von vor 42 Minuten, um 05:00 UTC
Gültige Prognose vom 22 um 06 UTC bis 22 um 15 UTC
Wind 10 kt aus West/Nordwest
Sichtweite 10 km oder mehr
Leicht bewölkt in der Höhe von 1600 ft
Aufgelockert bewölkt in der Höhe von 2500 ft
Zeitweise
vom 22 um 06 UTC bis 22 um 12 UTC
Wind 12 kt aus West/Nordwest, Böen bis zu 22 kt

TAF: LGSK 220500Z 2206/2215 29010KT 9999 FEW016 SCT025 TEMPO 2206/2212 29012G22KT

Wetterbeobachtungen und Prognosen von mehr als 4000 Flughäfen (METAR und TAF Bericht).

Die verfügbaren Stationen werden durch gelbe und rote Markierungen auf der Karte dargestellt.

Führen Sie die Maus auf sie, um den Namen der Station zu sehen.

Darauf klicken, um die Beobachtung von Wetterbeobachtungen und Prognosen zu sehen.

Um die Karte zu ändern : klicken Sie auf den grünen Tasten mit einem schwarzen Kreuz Zum Vergrößern, auf den grünen Button mit einem Gedankenstrich zu verkleinern, oder auf die grünen Pfeile für benachbarte Karten.


METAR-TAF: